Time;durP1;ratioP1;P1;durP2;ratioP2;P2;SDS_P1;SDS_P2;PMS_P1;PMS_P2;Temp;Humidity;BMP_temperature;BMP_pressure;BME280_temperature;BME280_humidity;BME280_pressure;Samples;Min_cycle;Max_cycle;Signal;HPM_P1;HPM_P2
2021/03/16 00:00:32;;;;;;;14.53;10.40;;;;;21.30;100821.00;;;;2085713;28;20205;-46
2021/03/16 00:01:32;;;;;;;14.77;10.80;;;;;21.30;100822.00;;;;2085658;28;20240;-46
2021/03/16 00:02:32;;;;;;;14.70;10.93;;;;;21.30;100819.00;;;;2085505;28;20214;-45
2021/03/16 00:03:33;;;;;;;11.67;9.30;;;;;21.40;100827.00;;;;2085770;28;20321;-46
2021/03/16 00:04:33;;;;;;;13.63;10.17;;;;;21.30;100822.00;;;;2085080;28;20243;-46
2021/03/16 00:05:33;;;;;;;13.27;9.20;;;;;21.30;100826.00;;;;2085626;28;20209;-46
2021/03/16 00:06:34;;;;;;;12.57;9.70;;;;;21.30;100826.00;;;;2085518;28;20209;-46
2021/03/16 00:07:34;;;;;;;13.30;9.93;;;;;21.30;100830.00;;;;2084521;28;20716;-45
2021/03/16 00:08:34;;;;;;;15.17;9.90;;;;;21.30;100830.00;;;;2084427;28;20213;-46
2021/03/16 00:09:35;;;;;;;17.17;10.20;;;;;21.30;100833.00;;;;2085453;28;20209;-45
2021/03/16 00:10:35;;;;;;;13.73;10.40;;;;;21.30;100836.00;;;;2085483;28;20225;-47
2021/03/16 00:11:36;;;;;;;12.13;9.27;;;;;21.30;100836.00;;;;2085415;28;20331;-46
2021/03/16 00:12:36;;;;;;;12.13;9.20;;;;;21.30;100832.00;;;;2085604;28;20225;-46
2021/03/16 00:13:36;;;;;;;12.53;9.60;;;;;21.30;100833.00;;;;2085797;28;20304;-46
2021/03/16 00:14:37;;;;;;;12.97;8.97;;;;;21.20;100832.00;;;;2085567;28;20214;-46
2021/03/16 00:15:37;;;;;;;14.10;9.70;;;;;21.20;100833.00;;;;2085652;28;20217;-46
2021/03/16 00:16:37;;;;;;;11.23;8.60;;;;;21.30;100838.00;;;;2085916;28;22875;-46
2021/03/16 00:17:38;;;;;;;12.13;8.70;;;;;21.20;100843.00;;;;2084188;28;20670;-45
2021/03/16 00:18:38;;;;;;;11.90;8.30;;;;;21.20;100844.00;;;;2085758;28;20729;-45
2021/03/16 00:19:39;;;;;;;9.90;7.80;;;;;21.20;100837.00;;;;2085398;28;20628;-46
2021/03/16 00:20:40;;;;;;;13.27;8.47;;;;;21.20;100836.00;;;;2085703;28;20236;-46
2021/03/16 00:21:41;;;;;;;11.10;7.70;;;;;21.20;100845.00;;;;2085317;28;20214;-45
2021/03/16 00:22:41;;;;;;;12.07;8.47;;;;;21.20;100844.00;;;;2085670;28;20686;-46
2021/03/16 00:23:41;;;;;;;10.03;7.40;;;;;21.20;100849.00;;;;2085386;28;20283;-45
2021/03/16 00:24:42;;;;;;;8.97;7.33;;;;;21.20;100845.00;;;;2085675;28;20209;-46
2021/03/16 00:25:42;;;;;;;10.40;7.27;;;;;21.20;100847.00;;;;2085562;28;20240;-45
2021/03/16 00:26:42;;;;;;;10.90;7.67;;;;;21.10;100845.00;;;;2085732;28;20594;-45
2021/03/16 00:27:44;;;;;;;11.40;8.10;;;;;21.20;100838.00;;;;2084592;28;20232;-46
2021/03/16 00:28:44;;;;;;;10.13;8.13;;;;;21.20;100846.00;;;;2085566;28;20214;-46
2021/03/16 00:29:44;;;;;;;9.43;6.70;;;;;21.20;100846.00;;;;2084965;28;20276;-46
2021/03/16 00:30:45;;;;;;;12.20;7.63;;;;;21.20;100858.00;;;;2085621;28;20214;-46
2021/03/16 00:31:45;;;;;;;9.10;6.67;;;;;21.20;100861.00;;;;2085514;28;20209;-45
2021/03/16 00:32:45;;;;;;;8.90;7.03;;;;;21.20;100848.00;;;;2085802;28;20222;-47
2021/03/16 00:33:46;;;;;;;11.27;7.50;;;;;21.10;100852.00;;;;2085149;28;20589;-46
2021/03/16 00:34:46;;;;;;;10.17;6.90;;;;;21.10;100854.00;;;;2085528;28;20271;-45
2021/03/16 00:35:46;;;;;;;10.20;7.50;;;;;21.10;100858.00;;;;2085459;28;20214;-46
2021/03/16 00:36:47;;;;;;;9.10;6.50;;;;;21.10;100852.00;;;;2084056;28;20213;-45
2021/03/16 00:37:47;;;;;;;10.17;7.57;;;;;21.10;100859.00;;;;2084226;28;20636;-46
2021/03/16 00:38:47;;;;;;;11.93;7.30;;;;;21.10;100858.00;;;;2085352;28;20225;-46
2021/03/16 00:39:48;;;;;;;11.33;6.83;;;;;21.10;100863.00;;;;2085179;28;20213;-45
2021/03/16 00:40:50;;;;;;;9.43;6.50;;;;;21.10;100855.00;;;;2085017;28;20210;-46
2021/03/16 00:41:50;;;;;;;8.95;6.22;;;;;21.10;100863.00;;;;2079352;28;20216;-47
2021/03/16 00:42:50;;;;;;;9.10;6.00;;;;;21.10;100859.00;;;;2079921;28;20293;-46
2021/03/16 00:43:52;;;;;;;9.00;6.70;;;;;21.10;100862.00;;;;2080115;28;20292;-46
2021/03/16 00:44:52;;;;;;;9.05;6.70;;;;;21.10;100863.00;;;;2079346;28;20687;-48
2021/03/16 00:45:53;;;;;;;9.40;6.27;;;;;21.10;100863.00;;;;2079537;28;20217;-47
2021/03/16 00:46:53;;;;;;;11.00;6.67;;;;;21.10;100869.00;;;;2079143;28;20220;-48
2021/03/16 00:47:53;;;;;;;9.20;5.73;;;;;21.00;100874.00;;;;2079010;28;20206;-45
2021/03/16 00:48:54;;;;;;;10.93;6.10;;;;;21.10;100866.00;;;;2080059;28;20292;-46
2021/03/16 00:49:54;;;;;;;10.37;6.27;;;;;21.00;100870.00;;;;2079934;28;20214;-46
2021/03/16 00:50:55;;;;;;;7.90;5.40;;;;;21.10;100875.00;;;;2079976;28;20575;-45
2021/03/16 00:51:58;;;;;;;6.03;5.07;;;;;21.00;100867.00;;;;2079545;28;20221;-45
2021/03/16 00:52:58;;;;;;;9.48;5.70;;;;;21.10;100872.00;;;;2079856;28;20220;-46
2021/03/16 00:53:59;;;;;;;10.03;5.50;;;;;21.00;100877.00;;;;2079944;28;20637;-45
2021/03/16 00:54:59;;;;;;;9.33;5.53;;;;;21.00;100877.00;;;;2079710;28;20214;-45
2021/03/16 00:55:59;;;;;;;8.27;5.00;;;;;21.00;100864.00;;;;2079850;28;20212;-45
2021/03/16 00:57:00;;;;;;;10.60;5.50;;;;;21.00;100875.00;;;;2080103;28;20671;-46
2021/03/16 00:58:00;;;;;;;9.33;5.33;;;;;21.00;100873.00;;;;2078905;28;20307;-46
2021/03/16 00:59:00;;;;;;;6.70;5.30;;;;;21.00;100881.00;;;;2079475;28;20206;-46
2021/03/16 01:00:01;;;;;;;7.33;5.33;;;;;21.00;100876.00;;;;2079845;28;20259;-46
2021/03/16 01:01:01;;;;;;;8.40;5.20;;;;;21.00;100873.00;;;;2079861;28;20221;-46
2021/03/16 01:02:01;;;;;;;7.50;4.93;;;;;21.00;100877.00;;;;2078140;28;20221;-46
2021/03/16 01:03:02;;;;;;;8.70;5.40;;;;;21.00;100883.00;;;;2078866;28;20809;-45
2021/03/16 01:04:02;;;;;;;7.60;5.13;;;;;21.00;100883.00;;;;2079220;28;20246;-47
2021/03/16 01:05:03;;;;;;;7.60;5.43;;;;;21.00;100883.00;;;;2079234;28;20237;-46
2021/03/16 01:06:04;;;;;;;7.13;4.97;;;;;21.00;100875.00;;;;2079128;28;20218;-46
2021/03/16 01:07:04;;;;;;;7.67;4.53;;;;;21.00;100883.00;;;;2078827;28;20242;-46
2021/03/16 01:08:05;;;;;;;10.90;5.23;;;;;21.00;100885.00;;;;2078255;28;20625;-46
2021/03/16 01:09:05;;;;;;;7.03;4.50;;;;;21.00;100886.00;;;;2079561;28;20206;-46
2021/03/16 01:10:09;;;;;;;6.90;4.60;;;;;21.00;100882.00;;;;2079074;28;20333;-45
2021/03/16 01:11:10;;;;;;;6.95;4.22;;;;;21.00;100889.00;;;;2079455;28;20218;-46
2021/03/16 01:12:10;;;;;;;5.90;4.43;;;;;21.00;100899.00;;;;2079234;28;20217;-46
2021/03/16 01:13:11;;;;;;;6.50;4.60;;;;;21.00;100893.00;;;;2078906;28;20245;-46
2021/03/16 01:14:11;;;;;;;6.80;4.53;;;;;20.90;100890.00;;;;2078393;28;20293;-46
2021/03/16 01:15:12;;;;;;;7.80;4.60;;;;;20.90;100888.00;;;;2079085;28;20743;-44
2021/03/16 01:16:12;;;;;;;7.80;4.80;;;;;21.00;100893.00;;;;2079940;28;20763;-46
2021/03/16 01:17:13;;;;;;;6.87;4.30;;;;;20.90;100883.00;;;;2078809;28;20264;-45
2021/03/16 01:18:13;;;;;;;7.30;4.10;;;;;20.90;100884.00;;;;2079153;28;20782;-46
2021/03/16 01:19:13;;;;;;;5.97;3.90;;;;;20.90;100889.00;;;;2079932;28;20218;-45
2021/03/16 01:20:16;;;;;;;5.70;4.47;;;;;20.90;100897.00;;;;2079694;28;20298;-45
2021/03/16 01:21:16;;;;;;;6.18;3.88;;;;;20.90;100896.00;;;;2079935;28;20214;-45
2021/03/16 01:22:17;;;;;;;6.63;4.17;;;;;20.90;100893.00;;;;2079756;28;20214;-47
2021/03/16 01:23:17;;;;;;;7.30;4.73;;;;;20.90;100900.00;;;;2079077;28;20268;-45
2021/03/16 01:24:17;;;;;;;6.93;4.23;;;;;20.90;100899.00;;;;2079529;28;20232;-46
2021/03/16 01:25:18;;;;;;;5.77;3.77;;;;;20.90;100892.00;;;;2079708;28;20536;-45
2021/03/16 01:26:18;;;;;;;6.93;4.03;;;;;20.90;100900.00;;;;2079361;28;20214;-46
2021/03/16 01:27:18;;;;;;;6.07;3.87;;;;;20.90;100898.00;;;;2078814;28;20221;-46
2021/03/16 01:28:19;;;;;;;5.80;3.90;;;;;20.90;100893.00;;;;2079744;28;20222;-45
2021/03/16 01:29:19;;;;;;;6.20;3.90;;;;;20.90;100900.00;;;;2079491;28;20218;-46
2021/03/16 01:30:20;;;;;;;5.70;4.07;;;;;20.90;100890.00;;;;2079288;28;20276;-45
2021/03/16 01:31:20;;;;;;;5.57;3.33;;;;;20.80;100893.00;;;;2079822;28;20218;-45
2021/03/16 01:32:20;;;;;;;6.80;3.90;;;;;20.80;100891.00;;;;2079479;28;20627;-45
2021/03/16 01:33:21;;;;;;;5.47;3.70;;;;;20.90;100899.00;;;;2079425;28;20240;-45
2021/03/16 01:34:21;;;;;;;4.97;3.50;;;;;20.80;100899.00;;;;2079320;28;20333;-47
2021/03/16 01:35:22;;;;;;;5.80;3.60;;;;;20.80;100891.00;;;;2079494;28;20230;-46
2021/03/16 01:36:22;;;;;;;5.68;4.00;;;;;20.90;100903.00;;;;2079559;28;20224;-45
2021/03/16 01:37:23;;;;;;;6.00;3.73;;;;;20.80;100910.00;;;;2078395;28;20639;-46
2021/03/16 01:38:23;;;;;;;4.87;3.47;;;;;20.80;100899.00;;;;2079457;28;20293;-46
2021/03/16 01:39:23;;;;;;;4.37;3.10;;;;;20.80;100896.00;;;;2079579;28;20218;-46
2021/03/16 01:40:35;;;;;;;6.90;3.60;;;;;20.80;100892.00;;;;2079407;28;20674;-45
2021/03/16 01:41:36;;;;;;;6.22;3.35;;;;;20.80;100898.00;;;;2079302;28;20225;-46
2021/03/16 01:42:36;;;;;;;6.30;3.63;;;;;20.80;100898.00;;;;2079396;28;21243;-46
2021/03/16 01:43:36;;;;;;;7.30;3.50;;;;;20.80;100900.00;;;;2079822;28;20745;-46
2021/03/16 01:44:38;;;;;;;5.80;3.73;;;;;20.80;100896.00;;;;2079462;28;20304;-46
2021/03/16 01:45:39;;;;;;;5.85;3.83;;;;;20.80;100899.00;;;;2079616;28;20218;-46
2021/03/16 01:46:40;;;;;;;4.97;2.90;;;;;20.80;100896.00;;;;2079222;28;20209;-46
2021/03/16 01:47:44;;;;;;;6.43;3.17;;;;;20.80;100900.00;;;;2078589;28;20703;-45
2021/03/16 01:48:44;;;;;;;5.78;3.65;;;;;20.80;100893.00;;;;2079695;28;20662;-45
2021/03/16 01:49:45;;;;;;;5.70;3.20;;;;;20.80;100897.00;;;;2078927;28;20218;-45
2021/03/16 01:50:45;;;;;;;4.53;3.17;;;;;20.70;100908.00;;;;2078724;28;20226;-46
2021/03/16 01:51:46;;;;;;;5.73;3.00;;;;;20.80;100902.00;;;;2079447;28;20221;-46
2021/03/16 01:52:47;;;;;;;5.77;2.77;;;;;20.70;100906.00;;;;2078736;28;20225;-46
2021/03/16 01:53:47;;;;;;;4.87;3.43;;;;;20.80;100900.00;;;;2078771;28;20218;-45
2021/03/16 01:54:47;;;;;;;5.33;3.17;;;;;20.80;100907.00;;;;2079354;28;20973;-46
2021/03/16 01:55:49;;;;;;;5.00;3.13;;;;;20.70;100910.00;;;;2070453;28;20250;-47
2021/03/16 01:56:49;;;;;;;5.55;3.17;;;;;20.70;100900.00;;;;2070517;28;20225;-47
2021/03/16 01:57:50;;;;;;;4.80;3.13;;;;;20.70;100909.00;;;;2077661;28;20616;-46
2021/03/16 01:58:54;;;;;;;4.60;2.77;;;;;20.70;100910.00;;;;2062285;28;20215;-45
2021/03/16 01:59:54;;;;;;;4.88;3.10;;;;;20.70;100901.00;;;;2070645;28;20241;-46
2021/03/16 02:00:54;;;;;;;4.37;2.97;;;;;20.70;100909.00;;;;2079467;28;20214;-45
2021/03/16 02:01:55;;;;;;;6.20;3.27;;;;;20.70;100902.00;;;;2079273;28;20309;-45
2021/03/16 02:02:55;;;;;;;5.73;2.70;;;;;20.70;100906.00;;;;2079543;28;20670;-46
2021/03/16 02:03:56;;;;;;;6.23;3.10;;;;;20.70;100870.00;;;;2077169;28;20293;-45
2021/03/16 02:04:56;;;;;;;4.80;3.40;;;;;20.80;100902.00;;;;2079154;28;20212;-46
2021/03/16 02:05:56;;;;;;;6.40;3.07;;;;;20.70;100906.00;;;;2079368;28;20217;-46
2021/03/16 02:07:27;;;;;;;5.00;2.83;;;;;20.70;100908.00;;;;2075812;28;20229;-46
2021/03/16 02:08:31;;;;;;;4.85;2.80;;;;;20.70;100903.00;;;;2078228;28;20216;-46
2021/03/16 02:09:48;;;;;;;5.75;3.10;;;;;20.70;100910.00;;;;2086611;28;20236;-45
2021/03/16 02:11:11;;;;;;;5.25;2.85;;;;;20.70;100905.00;;;;2086777;28;20263;-46
2021/03/16 02:12:18;;;;;;;4.88;2.88;;;;;20.70;100909.00;;;;2086632;28;20296;-46
2021/03/16 02:13:42;;;;;;;6.07;2.95;;;;;20.70;100906.00;;;;2080041;28;20216;-46
2021/03/16 02:14:45;;;;;;;5.63;3.17;;;;;20.70;100901.00;;;;2073265;28;20210;-46
2021/03/16 02:15:47;;;;;;;6.95;2.83;;;;;20.70;100913.00;;;;2070854;28;20214;-45
2021/03/16 02:17:06;;;;;;;4.82;2.85;;;;;20.70;100912.00;;;;2070993;28;20588;-46
2021/03/16 02:18:15;;;;;;;5.70;2.67;;;;;20.70;100902.00;;;;2069391;28;20680;-46
2021/03/16 02:19:45;;;;;;;6.00;2.83;;;;;20.60;100907.00;;;;2072626;28;20275;-46
2021/03/16 02:21:13;;;;;;;4.88;2.78;;;;;20.60;100904.00;;;;2074602;28;20208;-45
2021/03/16 02:22:14;;;;;;;5.50;3.05;;;;;20.60;100902.00;;;;2073772;28;20214;-46
2021/03/16 02:23:23;;;;;;;6.10;2.60;;;;;20.60;100915.00;;;;2070232;28;20217;-46
2021/03/16 02:24:51;;;;;;;5.63;2.63;;;;;20.60;100912.00;;;;2068715;28;20699;-44
2021/03/16 02:26:14;;;;;;;4.93;2.58;;;;;20.60;100913.00;;;;2071117;28;20623;-44
2021/03/16 02:27:19;;;;;;;4.60;2.55;;;;;20.60;100918.00;;;;2078671;28;20218;-43
2021/03/16 02:28:57;;;;;;;4.25;2.38;;;;;20.60;100914.00;;;;2079555;28;20214;-46
2021/03/16 02:30:01;;;;;;;3.97;2.45;;;;;20.60;100914.00;;;;2078944;28;20261;-46
2021/03/16 02:31:02;;;;;;;4.93;2.63;;;;;20.60;100911.00;;;;2077842;28;20245;-46
2021/03/16 02:32:04;;;;;;;5.77;2.70;;;;;20.60;100909.00;;;;2077484;28;20222;-46
2021/03/16 02:33:05;;;;;;;4.05;2.35;;;;;20.60;100918.00;;;;2078137;28;20279;-46
2021/03/16 02:34:06;;;;;;;4.90;2.40;;;;;20.60;100918.00;;;;2061856;28;20215;-47
2021/03/16 02:35:07;;;;;;;3.55;2.08;;;;;20.60;100912.00;;;;2061875;28;20482;-46
2021/03/16 02:36:08;;;;;;;4.80;2.33;;;;;20.60;100910.00;;;;2061103;28;20238;-46
2021/03/16 02:37:09;;;;;;;3.63;2.00;;;;;20.60;100912.00;;;;2058766;28;20608;-46
2021/03/16 02:38:10;;;;;;;4.90;2.42;;;;;20.60;100914.00;;;;2078522;28;20214;-47
2021/03/16 02:39:11;;;;;;;3.80;2.20;;;;;20.60;100917.00;;;;2086602;28;20205;-44
2021/03/16 02:40:12;;;;;;;5.05;2.20;;;;;20.60;100912.00;;;;2078506;28;20263;-44
2021/03/16 02:41:15;;;;;;;4.72;2.40;;;;;20.60;100921.00;;;;2078242;28;20214;-44
2021/03/16 02:42:16;;;;;;;4.53;2.33;;;;;20.60;100917.00;;;;2078491;28;20599;-44
2021/03/16 02:43:16;;;;;;;5.20;2.47;;;;;20.60;100915.00;;;;2086151;28;20216;-46
2021/03/16 02:44:17;;;;;;;2.60;1.90;;;;;20.60;100920.00;;;;2079062;28;20715;-46
2021/03/16 02:45:17;;;;;;;4.40;2.47;;;;;20.60;100919.00;;;;2069961;28;20738;-46
2021/03/16 02:46:18;;;;;;;4.20;2.30;;;;;20.60;100921.00;;;;2070047;28;20734;-45
2021/03/16 02:47:19;;;;;;;4.70;2.73;;;;;20.60;100916.00;;;;2077130;28;20320;-45
2021/03/16 02:48:20;;;;;;;3.83;2.10;;;;;20.60;100915.00;;;;2078310;28;20285;-45
2021/03/16 02:49:20;;;;;;;3.77;2.00;;;;;20.60;100927.00;;;;2056024;28;20207;-45
2021/03/16 02:50:20;;;;;;;4.50;2.43;;;;;20.60;100912.00;;;;2070385;28;20305;-45
2021/03/16 02:51:23;;;;;;;4.17;2.00;;;;;20.50;100918.00;;;;2070024;28;20301;-46
2021/03/16 02:52:23;;;;;;;4.57;2.20;;;;;20.50;100926.00;;;;2070124;28;20225;-45
2021/03/16 02:53:23;;;;;;;3.67;2.13;;;;;20.50;100925.00;;;;2069743;28;20226;-46
2021/03/16 02:54:24;;;;;;;2.97;2.00;;;;;20.50;100928.00;;;;2061947;28;20260;-46
2021/03/16 02:55:24;;;;;;;3.87;2.20;;;;;20.50;100934.00;;;;2070328;28;20273;-45
2021/03/16 02:56:24;;;;;;;4.73;2.20;;;;;20.50;100925.00;;;;2070007;28;20817;-46
2021/03/16 02:57:25;;;;;;;5.00;2.33;;;;;20.50;100932.00;;;;2069059;28;20218;-45
2021/03/16 02:58:25;;;;;;;4.73;1.90;;;;;20.50;100936.00;;;;2069510;28;20219;-45
2021/03/16 02:59:26;;;;;;;4.43;2.33;;;;;20.50;100929.00;;;;2061904;28;20222;-45
2021/03/16 03:00:26;;;;;;;4.10;2.13;;;;;20.50;100941.00;;;;2062284;28;20366;-46
2021/03/16 03:01:26;;;;;;;4.00;2.00;;;;;20.50;100936.00;;;;2070193;28;20241;-46
2021/03/16 03:02:28;;;;;;;3.70;2.37;;;;;20.50;100942.00;;;;2070028;28;20214;-45
2021/03/16 03:03:29;;;;;;;4.65;2.40;;;;;20.50;100933.00;;;;2070241;28;20250;-46
2021/03/16 03:04:29;;;;;;;6.85;2.30;;;;;20.50;100941.00;;;;2069546;28;20215;-45
2021/03/16 03:05:29;;;;;;;4.90;2.13;;;;;20.50;100942.00;;;;2069881;28;20222;-46
2021/03/16 03:06:30;;;;;;;3.30;1.90;;;;;20.50;100939.00;;;;2070038;28;20214;-46
2021/03/16 03:07:30;;;;;;;5.73;2.10;;;;;20.50;100943.00;;;;2068903;28;20331;-45
2021/03/16 03:08:30;;;;;;;5.40;2.83;;;;;20.50;100948.00;;;;2061717;28;23074;-45
2021/03/16 03:09:31;;;;;;;4.17;2.00;;;;;20.50;100943.00;;;;2061844;28;20599;-45
2021/03/16 03:10:31;;;;;;;3.80;2.13;;;;;20.50;100944.00;;;;2061868;28;20231;-45
2021/03/16 03:11:32;;;;;;;4.10;2.20;;;;;20.50;100950.00;;;;2061706;28;20228;-45
2021/03/16 03:12:32;;;;;;;4.45;2.03;;;;;20.50;100949.00;;;;2069927;28;20227;-46
2021/03/16 03:13:33;;;;;;;3.13;1.80;;;;;20.40;100948.00;;;;2070694;28;20210;-45
2021/03/16 03:14:33;;;;;;;4.30;1.97;;;;;20.40;100947.00;;;;2078158;28;20214;-45
2021/03/16 03:15:34;;;;;;;2.90;1.90;;;;;20.50;100951.00;;;;2078377;28;20618;-46
2021/03/16 03:16:34;;;;;;;3.23;1.67;;;;;20.40;100949.00;;;;2070496;28;20211;-47
2021/03/16 03:17:35;;;;;;;3.77;2.40;;;;;20.40;100952.00;;;;2069729;28;20664;-45
2021/03/16 03:18:36;;;;;;;5.10;2.53;;;;;20.40;100950.00;;;;2070467;28;20218;-47
2021/03/16 03:19:36;;;;;;;5.30;2.10;;;;;20.40;100954.00;;;;2078228;28;20738;-46
2021/03/16 03:20:37;;;;;;;4.07;1.87;;;;;20.50;100951.00;;;;2078014;28;20304;-46
2021/03/16 03:21:49;;;;;;;4.90;2.03;;;;;20.40;100957.00;;;;2070331;28;20245;-46
2021/03/16 03:23:00;;;;;;;5.47;1.98;;;;;20.50;100924.00;;;;2059849;28;20211;-45
2021/03/16 03:24:03;;;;;;;5.60;2.30;;;;;20.40;100958.00;;;;2069925;28;20215;-46
2021/03/16 03:25:25;;;;;;;4.78;1.80;;;;;20.40;100969.00;;;;2077640;28;20309;-46
2021/03/16 03:26:31;;;;;;;3.80;2.10;;;;;20.40;100954.00;;;;2074410;28;20246;-45
2021/03/16 03:27:38;;;;;;;4.05;1.63;;;;;20.40;100956.00;;;;2068648;28;20206;-45
2021/03/16 03:28:38;;;;;;;5.10;1.90;;;;;20.40;100958.00;;;;2069962;28;20747;-46
2021/03/16 03:29:38;;;;;;;4.37;2.00;;;;;20.40;100958.00;;;;2070431;28;20215;-45
2021/03/16 03:30:39;;;;;;;6.50;2.00;;;;;20.40;100959.00;;;;2070854;28;20253;-46
2021/03/16 03:31:44;;;;;;;4.63;1.63;;;;;20.40;100963.00;;;;2070456;28;20242;-45
2021/03/16 03:32:44;;;;;;;3.83;1.60;;;;;20.40;100967.00;;;;2077755;28;20232;-45
2021/03/16 03:33:44;;;;;;;3.50;1.40;;;;;20.40;100964.00;;;;2078112;28;20240;-47
2021/03/16 03:34:45;;;;;;;4.33;1.70;;;;;20.40;100968.00;;;;2078655;28;20202;-45
2021/03/16 03:35:46;;;;;;;4.72;1.90;;;;;20.40;100963.00;;;;2077904;28;20207;-46
2021/03/16 03:36:49;;;;;;;3.97;1.87;;;;;20.40;100975.00;;;;2081819;28;20793;-46
2021/03/16 03:37:50;;;;;;;5.15;2.30;;;;;20.40;100971.00;;;;2077205;28;20240;-46
2021/03/16 03:38:51;;;;;;;4.50;1.63;;;;;20.40;100976.00;;;;2069672;28;20202;-46
2021/03/16 03:39:51;;;;;;;4.50;2.10;;;;;20.40;100973.00;;;;2078133;28;20198;-45
2021/03/16 03:40:51;;;;;;;5.50;2.27;;;;;20.40;100959.00;;;;2069912;28;20500;-46
2021/03/16 03:41:52;;;;;;;5.50;1.90;;;;;20.40;100971.00;;;;2077945;28;20221;-45
2021/03/16 03:42:54;;;;;;;3.53;2.23;;;;;20.40;100977.00;;;;2086235;28;20251;-47
2021/03/16 03:43:55;;;;;;;4.20;1.90;;;;;20.40;100971.00;;;;2086849;28;20694;-46
2021/03/16 03:44:56;;;;;;;4.95;1.50;;;;;20.40;100980.00;;;;2086365;28;20339;-45
2021/03/16 03:45:57;;;;;;;3.77;1.80;;;;;20.40;100973.00;;;;2078362;28;20214;-46
2021/03/16 03:46:57;;;;;;;3.10;1.67;;;;;20.40;100975.00;;;;2078284;28;20210;-46
2021/03/16 03:48:01;;;;;;;4.00;2.20;;;;;20.40;100990.00;;;;2077194;28;20206;-45
2021/03/16 03:49:02;;;;;;;5.47;1.63;;;;;20.40;100985.00;;;;2078557;28;20228;-46
2021/03/16 03:50:03;;;;;;;3.47;1.97;;;;;20.40;100981.00;;;;2077670;28;20702;-45
2021/03/16 03:51:04;;;;;;;6.15;2.17;;;;;20.30;100976.00;;;;2078047;28;20293;-46
2021/03/16 03:52:04;;;;;;;4.80;2.10;;;;;20.30;100983.00;;;;2086009;28;20300;-45
2021/03/16 03:53:05;;;;;;;3.53;2.03;;;;;20.30;100983.00;;;;2069802;28;20223;-45
2021/03/16 03:54:05;;;;;;;4.57;1.90;;;;;20.30;100976.00;;;;2069791;28;20219;-45
2021/03/16 03:55:07;;;;;;;4.40;1.67;;;;;20.30;100989.00;;;;2069426;28;20211;-45
2021/03/16 03:56:07;;;;;;;4.47;2.13;;;;;20.30;100974.00;;;;2086553;28;20213;-46
2021/03/16 03:57:08;;;;;;;3.50;1.70;;;;;20.30;100985.00;;;;2085281;28;20299;-46
2021/03/16 03:58:08;;;;;;;3.63;1.60;;;;;20.30;100985.00;;;;2069921;28;20223;-46
2021/03/16 03:59:08;;;;;;;4.23;1.60;;;;;20.30;100985.00;;;;2070171;28;20227;-46
2021/03/16 04:00:15;;;;;;;4.60;1.67;;;;;20.30;100979.00;;;;2077329;28;20222;-45
2021/03/16 04:01:15;;;;;;;3.83;1.77;;;;;20.30;100980.00;;;;2069744;28;20352;-46
2021/03/16 04:02:16;;;;;;;4.47;1.90;;;;;20.30;100978.00;;;;2061359;28;20219;-45
2021/03/16 04:03:16;;;;;;;3.50;1.63;;;;;20.30;100974.00;;;;2061453;28;20246;-45
2021/03/16 04:04:17;;;;;;;2.70;1.63;;;;;20.30;100982.00;;;;2069249;28;20280;-45
2021/03/16 04:05:17;;;;;;;5.40;1.97;;;;;20.30;100977.00;;;;2075975;28;20229;-45
2021/03/16 04:06:18;;;;;;;4.87;1.50;;;;;20.30;100979.00;;;;2069675;28;20277;-46
2021/03/16 04:07:18;;;;;;;4.17;1.70;;;;;20.30;100978.00;;;;2060653;28;20230;-46
2021/03/16 04:08:18;;;;;;;4.30;2.20;;;;;20.30;100985.00;;;;2061284;28;20964;-46
2021/03/16 04:09:19;;;;;;;3.40;1.60;;;;;20.30;100979.00;;;;2068645;28;20261;-45
2021/03/16 04:10:19;;;;;;;2.63;1.17;;;;;20.30;100978.00;;;;2069405;28;20222;-46
2021/03/16 04:11:20;;;;;;;3.33;1.43;;;;;20.30;100982.00;;;;2077327;28;20214;-45
2021/03/16 04:12:20;;;;;;;3.00;1.50;;;;;20.20;100979.00;;;;2075225;28;20224;-47
2021/03/16 04:13:21;;;;;;;2.20;1.30;;;;;20.20;100981.00;;;;2054834;28;20212;-48
2021/03/16 04:14:22;;;;;;;2.37;1.33;;;;;20.30;100980.00;;;;2069396;28;20226;-45
2021/03/16 04:15:22;;;;;;;4.77;1.70;;;;;20.30;100981.00;;;;2068811;28;20458;-45
2021/03/16 04:16:23;;;;;;;3.47;1.47;;;;;20.30;100987.00;;;;2062290;28;20241;-45
2021/03/16 04:17:23;;;;;;;4.40;1.67;;;;;20.30;100989.00;;;;2061821;28;20215;-46
2021/03/16 04:18:23;;;;;;;3.33;1.50;;;;;20.30;100989.00;;;;2063081;28;20223;-45
2021/03/16 04:19:24;;;;;;;4.60;1.90;;;;;20.30;100984.00;;;;2075401;28;20217;-45
2021/03/16 04:20:24;;;;;;;4.03;1.20;;;;;20.30;100988.00;;;;2079025;28;20209;-45
2021/03/16 04:21:24;;;;;;;3.83;1.40;;;;;20.30;100979.00;;;;2071077;28;20210;-45
2021/03/16 04:22:25;;;;;;;3.10;1.60;;;;;20.30;100985.00;;;;2063062;28;20295;-45
2021/03/16 04:23:25;;;;;;;3.37;1.60;;;;;20.30;100990.00;;;;2071044;28;20310;-45
2021/03/16 04:24:25;;;;;;;3.17;1.50;;;;;20.30;100990.00;;;;2065546;28;20270;-46
2021/03/16 04:25:26;;;;;;;3.47;1.80;;;;;20.20;100993.00;;;;2062975;28;20347;-46
2021/03/16 04:26:26;;;;;;;3.23;1.30;;;;;20.20;100993.00;;;;2071189;28;20679;-47
2021/03/16 04:27:27;;;;;;;5.07;1.90;;;;;20.20;101001.00;;;;2079120;28;20300;-46
2021/03/16 04:28:27;;;;;;;4.50;1.70;;;;;20.20;101000.00;;;;2080163;28;20217;-46
2021/03/16 04:29:27;;;;;;;3.07;1.37;;;;;20.20;100993.00;;;;2078610;28;20915;-46
2021/03/16 04:30:28;;;;;;;5.50;1.60;;;;;20.20;100998.00;;;;2079486;28;20735;-47
2021/03/16 04:31:28;;;;;;;2.53;1.30;;;;;20.20;101006.00;;;;2079943;28;20218;-48
2021/03/16 04:32:28;;;;;;;3.20;1.23;;;;;20.20;101002.00;;;;2079212;28;20633;-46
2021/03/16 04:33:29;;;;;;;3.20;1.43;;;;;20.20;101004.00;;;;2079888;28;20210;-45
2021/03/16 04:34:29;;;;;;;3.90;1.60;;;;;20.20;101005.00;;;;2080202;28;20305;-46
2021/03/16 04:35:30;;;;;;;3.57;1.30;;;;;20.20;101011.00;;;;2079970;28;20218;-46
2021/03/16 04:36:30;;;;;;;3.13;1.40;;;;;20.20;101013.00;;;;2080207;28;20855;-46
2021/03/16 04:37:30;;;;;;;4.90;2.00;;;;;20.20;101008.00;;;;2079002;28;20272;-46
2021/03/16 04:38:31;;;;;;;4.20;1.43;;;;;20.20;101011.00;;;;2079221;28;20214;-45
2021/03/16 04:39:31;;;;;;;2.70;1.73;;;;;20.20;101019.00;;;;2079868;28;20245;-45
2021/03/16 04:40:31;;;;;;;2.80;1.17;;;;;20.20;101018.00;;;;2080009;28;20213;-45
2021/03/16 04:41:32;;;;;;;3.37;1.27;;;;;20.20;101014.00;;;;2080069;28;20321;-45
2021/03/16 04:42:32;;;;;;;4.63;1.70;;;;;20.20;101011.00;;;;2079969;28;20301;-45
2021/03/16 04:43:33;;;;;;;2.90;1.37;;;;;20.20;101013.00;;;;2080001;28;20484;-46
2021/03/16 04:44:33;;;;;;;4.27;1.50;;;;;20.20;101012.00;;;;2080200;28;20210;-46
2021/03/16 04:45:33;;;;;;;2.50;1.23;;;;;20.20;101020.00;;;;2079846;28;20248;-45
2021/03/16 04:46:34;;;;;;;2.70;1.20;;;;;20.20;101023.00;;;;2079739;28;20210;-45
2021/03/16 04:47:34;;;;;;;2.97;1.17;;;;;20.20;101016.00;;;;2079230;28;20218;-45
2021/03/16 04:48:35;;;;;;;3.27;1.40;;;;;20.10;101017.00;;;;2079978;28;20289;-45
2021/03/16 04:49:35;;;;;;;3.87;1.60;;;;;20.20;101013.00;;;;2079825;28;20754;-46
2021/03/16 04:50:35;;;;;;;3.03;1.57;;;;;20.10;101027.00;;;;2080129;28;20273;-45
2021/03/16 04:51:36;;;;;;;3.27;1.20;;;;;20.20;101022.00;;;;2079715;28;20252;-45
2021/03/16 04:52:36;;;;;;;2.43;1.20;;;;;20.20;101026.00;;;;2078895;28;20222;-45
2021/03/16 04:53:36;;;;;;;4.43;1.40;;;;;19.90;101024.00;;;;2079274;28;20686;-46
2021/03/16 04:54:37;;;;;;;2.50;1.40;;;;;20.10;101027.00;;;;2079568;28;20304;-46
2021/03/16 04:55:37;;;;;;;3.33;1.43;;;;;20.10;101035.00;;;;2082509;28;20810;-46
2021/03/16 04:56:38;;;;;;;3.10;1.40;;;;;20.10;101030.00;;;;2085361;28;20217;-46
2021/03/16 04:57:38;;;;;;;4.00;1.27;;;;;20.10;101031.00;;;;2078768;28;20222;-46
2021/03/16 04:58:38;;;;;;;3.53;1.57;;;;;20.10;101026.00;;;;2079876;28;20782;-45
2021/03/16 04:59:39;;;;;;;2.50;1.13;;;;;20.10;101038.00;;;;2079309;28;20218;-46
2021/03/16 05:00:39;;;;;;;3.10;1.17;;;;;20.10;101045.00;;;;2080097;28;20695;-46
2021/03/16 05:01:43;;;;;;;4.70;1.40;;;;;20.10;101030.00;;;;2079549;28;20449;-46
2021/03/16 05:02:43;;;;;;;3.90;1.23;;;;;20.10;101035.00;;;;2080204;28;20819;-46
2021/03/16 05:03:44;;;;;;;2.83;1.60;;;;;20.10;101035.00;;;;2080260;28;20276;-48
2021/03/16 05:04:44;;;;;;;2.03;1.00;;;;;20.10;101035.00;;;;2080067;28;20685;-43